createdAt,value
2023-03-30T19:22:30.582Z,12.70
2023-03-30T19:24:59.250Z,12.60
2023-03-30T19:27:27.631Z,11.50
2023-03-30T19:29:57.650Z,12.00
2023-03-30T19:32:26.257Z,11.80
2023-03-30T19:34:56.457Z,10.30
2023-03-30T19:37:24.942Z,11.70
2023-03-30T19:39:53.531Z,11.40
2023-03-30T19:42:23.240Z,10.20
2023-03-30T19:44:51.723Z,11.00
2023-03-30T19:47:21.648Z,7.10
2023-03-30T19:49:51.351Z,11.60
2023-03-30T19:52:19.731Z,10.40
2023-03-30T19:54:48.219Z,12.90
2023-03-30T19:57:17.072Z,11.60
2023-03-30T19:59:49.482Z,9.60
2023-03-30T20:02:18.578Z,8.60
2023-03-30T20:04:47.791Z,11.40
2023-03-30T20:07:16.595Z,9.60
2023-03-30T20:09:45.666Z,9.50
2023-03-30T20:12:14.061Z,9.20
2023-03-30T20:14:43.862Z,9.50
2023-03-30T20:17:12.362Z,9.90
2023-03-30T20:19:41.053Z,8.30
2023-03-30T20:22:13.002Z,7.80
2023-03-30T20:24:45.080Z,6.80
2023-03-30T20:27:13.654Z,6.60
2023-03-30T20:29:42.344Z,6.90
2023-03-30T20:32:11.033Z,6.50
2023-03-30T20:34:42.793Z,6.00
2023-03-30T20:37:11.272Z,5.90
2023-03-30T20:39:39.657Z,6.00
2023-03-30T20:42:09.678Z,5.60
2023-03-30T20:44:40.833Z,5.80
2023-03-30T20:47:11.349Z,6.50
2023-03-30T20:49:41.942Z,6.20
2023-03-30T20:52:12.000Z,6.70
2023-03-30T20:54:44.617Z,6.60
2023-03-30T20:57:14.006Z,7.20
2023-03-30T20:59:42.780Z,8.00
2023-03-30T21:02:11.869Z,8.80
2023-03-30T21:04:40.614Z,8.30
2023-03-30T21:07:12.631Z,8.30
2023-03-30T21:09:42.237Z,8.30
2023-03-30T21:12:10.668Z,7.70
2023-03-30T21:14:46.188Z,7.70
2023-03-30T21:17:14.665Z,8.20
2023-03-30T21:19:43.337Z,10.00
2023-03-30T21:22:12.629Z,10.10
2023-03-30T21:24:42.962Z,10.00
2023-03-30T21:27:14.102Z,9.50
2023-03-30T21:29:45.139Z,11.00
2023-03-30T21:32:13.924Z,9.80
2023-03-30T21:34:42.716Z,10.50
2023-03-30T21:37:11.169Z,11.60
2023-03-30T21:39:39.985Z,13.00
2023-03-30T21:42:08.372Z,12.50
2023-03-30T21:44:36.947Z,12.60
2023-03-30T21:47:05.533Z,11.50
2023-03-30T21:49:34.528Z,10.90
2023-03-30T21:52:04.246Z,11.60
2023-03-30T21:54:32.820Z,11.30
2023-03-30T21:57:01.328Z,11.40
2023-03-30T21:59:29.991Z,11.00
2023-03-30T22:01:58.477Z,12.60
2023-03-30T22:04:26.843Z,10.50
2023-03-30T22:06:55.228Z,10.70
2023-03-30T22:09:23.816Z,10.10
2023-03-30T22:11:55.787Z,10.00
2023-03-30T22:14:25.483Z,10.20
2023-03-30T22:16:53.964Z,10.00
2023-03-30T22:19:29.215Z,8.90
2023-03-30T22:21:57.890Z,9.30
2023-03-30T22:24:26.371Z,9.30
2023-03-30T22:26:55.676Z,8.90
2023-03-30T22:29:24.062Z,8.80
2023-03-30T22:31:56.104Z,8.60
2023-03-30T22:34:25.115Z,8.40
2023-03-30T22:36:54.622Z,7.30
2023-03-30T22:39:23.819Z,7.40
2023-03-30T22:41:52.420Z,8.00
2023-03-30T22:44:21.705Z,7.60
2023-03-30T22:46:49.985Z,5.60
2023-03-30T22:49:18.580Z,8.30
2023-03-30T22:51:52.806Z,7.70
2023-03-30T22:54:21.999Z,7.20
2023-03-30T22:56:51.406Z,7.60
2023-03-30T22:59:19.980Z,8.50
2023-03-30T23:01:48.360Z,8.70
2023-03-30T23:04:17.450Z,7.90
2023-03-30T23:06:46.235Z,6.50
2023-03-30T23:09:14.816Z,8.60
2023-03-30T23:11:47.811Z,8.00
2023-03-30T23:14:16.495Z,8.70
2023-03-30T23:16:46.607Z,8.10
2023-03-30T23:19:16.230Z,8.90
2023-03-30T23:21:46.036Z,7.90
2023-03-30T23:24:17.078Z,8.30
2023-03-30T23:26:46.790Z,8.10
2023-03-30T23:29:15.166Z,8.50
2023-03-30T23:31:44.674Z,9.90
2023-03-30T23:34:13.672Z,9.70
2023-03-30T23:39:12.288Z,10.90
2023-03-30T23:41:40.964Z,11.00
2023-03-30T23:44:12.309Z,10.00
2023-03-30T23:46:42.102Z,10.30
2023-03-30T23:49:10.708Z,10.20
2023-03-30T23:51:39.507Z,10.10
2023-03-30T23:54:08.087Z,10.80
2023-03-30T23:56:38.116Z,11.00
2023-03-30T23:59:07.003Z,11.80
